Time;durP1;ratioP1;P1;durP2;ratioP2;P2;SDS_P1;SDS_P2;PMS_P1;PMS_P2;Temp;Humidity;BMP_temperature;BMP_pressure;BME280_temperature;BME280_humidity;BME280_pressure;Samples;Min_cycle;Max_cycle;Signal;HPM_P1;HPM_P2
2022/06/23 00:01:07;;;;;;;;;;;19.70;99.90;;;;;;5044400;28;19953;-69
2022/06/23 00:03:35;;;;;;;;;;;19.70;99.90;;;;;;5044761;28;19948;-70
2022/06/23 00:06:05;;;;;;;;;;;19.70;99.90;;;;;;5044095;28;19988;-69
2022/06/23 00:08:31;;;;;;;;;;;19.70;99.90;;;;;;5044081;28;19952;-70
2022/06/23 00:10:59;;;;;;;;;;;19.70;99.90;;;;;;5044235;28;19959;-70
2022/06/23 00:13:31;;;;;;;;;;;19.70;99.90;;;;;;5043761;28;19921;-70
2022/06/23 00:15:58;;;;;;;;;;;19.70;99.90;;;;;;5043676;28;19963;-70
2022/06/23 00:18:26;;;;;;;;;;;19.70;99.90;;;;;;5043881;28;19952;-70
2022/06/23 00:20:54;;;;;;;;;;;19.70;99.90;;;;;;5043897;28;19968;-70
2022/06/23 00:23:24;;;;;;;;;;;19.70;99.90;;;;;;5044168;28;19921;-70
2022/06/23 00:25:53;;;;;;;;;;;19.70;99.90;;;;;;5043791;28;19928;-70
2022/06/23 00:28:21;;;;;;;;;;;19.70;99.90;;;;;;5043509;28;20216;-68
2022/06/23 00:30:51;;;;;;;;;;;19.60;99.90;;;;;;5043934;28;19949;-69
2022/06/23 00:33:19;;;;;;;;;;;19.60;99.90;;;;;;5043558;28;20227;-69
2022/06/23 00:35:46;;;;;;;;;;;19.60;99.90;;;;;;5043824;28;20000;-69
2022/06/23 00:38:19;;;;;;;;;;;19.60;99.90;;;;;;5043841;28;19948;-69
2022/06/23 00:40:47;;;;;;;;;;;19.60;99.90;;;;;;5043682;28;20202;-70
2022/06/23 00:43:14;;;;;;;;;;;19.60;99.90;;;;;;5043300;28;20000;-69
2022/06/23 00:45:44;;;;;;;;;;;19.60;99.90;;;;;;5043357;28;19952;-69
2022/06/23 00:48:14;;;;;;;;;;;19.60;99.90;;;;;;5043408;28;19961;-69
2022/06/23 00:50:47;;;;;;;;;;;19.60;99.90;;;;;;5043246;28;19954;-69
2022/06/23 00:53:20;;;;;;;;;;;19.60;99.90;;;;;;5043316;28;20228;-69
2022/06/23 00:55:52;;;;;;;;;;;19.60;99.90;;;;;;5043225;28;19928;-69
2022/06/23 00:58:24;;;;;;;;;;;19.50;99.90;;;;;;5043033;28;20240;-70
2022/06/23 01:00:52;;;;;;;;;;;19.50;99.90;;;;;;5043143;28;19948;-70
2022/06/23 01:03:22;;;;;;;;;;;19.50;99.90;;;;;;5043385;28;19964;-70
2022/06/23 01:05:51;;;;;;;;;;;19.50;99.90;;;;;;5042879;28;19927;-69
2022/06/23 01:08:22;;;;;;;;;;;19.50;99.90;;;;;;5043542;28;19956;-69
2022/06/23 01:10:53;;;;;;;;;;;19.40;99.90;;;;;;5043166;28;19921;-69
2022/06/23 01:13:24;;;;;;;;;;;19.50;99.90;;;;;;5043291;28;19957;-70
2022/06/23 01:15:53;;;;;;;;;;;19.40;99.90;;;;;;5043229;28;20231;-69
2022/06/23 01:18:21;;;;;;;;;;;19.40;99.90;;;;;;5042787;28;19928;-69
2022/06/23 01:20:51;;;;;;;;;;;19.40;99.90;;;;;;5042804;28;19987;-69
2022/06/23 01:23:42;;;;;;;;;;;19.30;99.90;;;;;;5042683;28;19921;-70
2022/06/23 01:26:27;;;;;;;;;;;19.30;99.90;;;;;;5023135;28;20217;-69
2022/06/23 01:29:00;;;;;;;;;;;19.20;99.90;;;;;;5042819;28;19949;-70
2022/06/23 01:31:29;;;;;;;;;;;19.20;99.90;;;;;;5043718;28;19948;-69
2022/06/23 01:33:57;;;;;;;;;;;19.20;99.90;;;;;;5043632;28;19970;-69
2022/06/23 01:36:26;;;;;;;;;;;19.10;99.90;;;;;;5040285;28;20116;-70
2022/06/23 01:38:57;;;;;;;;;;;19.10;99.90;;;;;;5023951;28;19928;-70
2022/06/23 01:41:26;;;;;;;;;;;19.10;99.90;;;;;;5023533;28;19936;-70
2022/06/23 01:43:59;;;;;;;;;;;19.10;99.90;;;;;;5034036;28;19921;-69
2022/06/23 01:46:29;;;;;;;;;;;19.20;99.90;;;;;;5043095;28;20220;-70
2022/06/23 01:48:58;;;;;;;;;;;19.10;99.90;;;;;;5024561;28;19960;-69
2022/06/23 01:51:26;;;;;;;;;;;19.10;99.90;;;;;;5023364;28;20093;-69
2022/06/23 01:53:54;;;;;;;;;;;19.10;99.90;;;;;;5023555;28;19957;-69
2022/06/23 01:56:32;;;;;;;;;;;19.00;99.90;;;;;;5023135;28;19941;-69
2022/06/23 01:59:03;;;;;;;;;;;19.00;99.90;;;;;;5023825;28;19949;-69
2022/06/23 02:01:35;;;;;;;;;;;18.90;99.90;;;;;;5065286;22;20311;-91
2022/06/23 02:06:40;;;;;;;;;;;18.90;99.90;;;;;;4986696;28;19968;-70
2022/06/23 02:09:11;;;;;;;;;;;18.90;99.90;;;;;;4985381;28;19996;-71
2022/06/23 02:11:39;;;;;;;;;;;18.90;99.90;;;;;;4988769;28;19933;-71
2022/06/23 02:14:11;;;;;;;;;;;18.80;99.90;;;;;;4987620;28;19923;-71
2022/06/23 02:16:44;;;;;;;;;;;18.80;99.90;;;;;;4987031;28;19953;-71
2022/06/23 02:19:16;;;;;;;;;;;18.80;99.90;;;;;;4987630;28;20210;-71
2022/06/23 02:21:46;;;;;;;;;;;18.80;99.90;;;;;;4994036;28;19929;-71
2022/06/23 02:24:16;;;;;;;;;;;18.80;99.90;;;;;;4987302;28;19953;-71
2022/06/23 02:26:48;;;;;;;;;;;18.80;99.90;;;;;;4987312;28;19929;-71
2022/06/23 02:29:20;;;;;;;;;;;18.70;99.90;;;;;;4988217;28;19949;-70
2022/06/23 02:31:50;;;;;;;;;;;18.70;99.90;;;;;;4986809;28;19960;-71
2022/06/23 02:34:19;;;;;;;;;;;18.80;99.90;;;;;;4987148;28;19953;-71
2022/06/23 02:37:01;;;;;;;;;;;18.70;99.90;;;;;;4986842;28;19961;-70
2022/06/23 02:39:31;;;;;;;;;;;18.70;99.90;;;;;;4987124;28;20225;-71
2022/06/23 02:42:00;;;;;;;;;;;18.70;99.90;;;;;;4986769;28;19985;-71
2022/06/23 02:44:36;;;;;;;;;;;18.60;99.90;;;;;;4986939;28;20265;-71
2022/06/23 02:47:10;;;;;;;;;;;18.60;99.90;;;;;;4987356;28;19956;-71
2022/06/23 02:49:57;;;;;;;;;;;18.60;99.90;;;;;;4987005;28;19949;-70
2022/06/23 02:52:44;;;;;;;;;;;18.60;99.90;;;;;;4983473;28;19953;-70
2022/06/23 02:55:33;;;;;;;;;;;18.50;99.90;;;;;;4983051;28;19922;-71
2022/06/23 02:58:03;;;;;;;;;;;18.40;99.90;;;;;;4986585;28;19985;-71
2022/06/23 03:00:33;;;;;;;;;;;18.30;99.90;;;;;;4986561;28;20169;-71
2022/06/23 03:03:05;;;;;;;;;;;18.20;99.90;;;;;;4986556;28;19954;-71
2022/06/23 03:05:36;;;;;;;;;;;18.20;99.90;;;;;;4985200;28;19922;-71
2022/06/23 03:08:07;;;;;;;;;;;18.20;99.90;;;;;;4986622;28;20117;-70
2022/06/23 03:13:41;;;;;;;;;;;18.20;99.90;;;;;;4985962;28;20106;-71
2022/06/23 03:16:13;;;;;;;;;;;18.20;99.90;;;;;;4985779;28;19930;-71
2022/06/23 03:18:47;;;;;;;;;;;18.00;99.90;;;;;;4986279;28;19949;-71
2022/06/23 03:21:18;;;;;;;;;;;18.00;99.90;;;;;;4985947;28;19926;-71
2022/06/23 03:23:46;;;;;;;;;;;17.90;99.90;;;;;;4986079;28;19929;-71
2022/06/23 03:26:16;;;;;;;;;;;17.90;99.90;;;;;;4986120;28;19956;-70
2022/06/23 03:53:12;;;;;;;;;;;17.60;99.90;;;;;;4985859;28;20215;-71
2022/06/23 03:55:41;;;;;;;;;;;17.50;99.90;;;;;;4984931;28;20252;-71
2022/06/23 03:58:14;;;;;;;;;;;17.50;99.90;;;;;;4985484;28;19922;-71
2022/06/23 04:00:43;;;;;;;;;;;17.50;99.90;;;;;;4985320;28;19922;-71
2022/06/23 04:03:14;;;;;;;;;;;17.50;99.90;;;;;;4985748;28;19921;-71
2022/06/23 04:06:10;;;;;;;;;;;17.50;99.90;;;;;;4983423;28;19972;-70
2022/06/23 04:08:43;;;;;;;;;;;17.40;99.90;;;;;;4985614;28;19957;-71
2022/06/23 04:13:54;;;;;;;;;;;17.50;99.90;;;;;;4987050;28;19918;-71
2022/06/23 04:16:23;;;;;;;;;;;17.60;99.90;;;;;;4984382;28;19960;-71
2022/06/23 04:18:50;;;;;;;;;;;17.60;99.90;;;;;;4989413;28;19965;-70
2022/06/23 04:21:20;;;;;;;;;;;17.70;99.90;;;;;;4985234;28;19928;-70
2022/06/23 04:23:50;;;;;;;;;;;17.50;99.90;;;;;;4985386;28;20253;-70
2022/06/23 04:26:18;;;;;;;;;;;17.50;99.90;;;;;;4987218;28;19922;-70
2022/06/23 04:28:46;;;;;;;;;;;17.60;99.90;;;;;;4984543;28;19929;-71
2022/06/23 04:31:16;;;;;;;;;;;17.60;99.90;;;;;;4984208;28;20201;-70
2022/06/23 04:33:43;;;;;;;;;;;17.70;99.90;;;;;;4984769;28;19922;-69
2022/06/23 04:36:18;;;;;;;;;;;17.70;99.90;;;;;;4987157;28;19969;-70
2022/06/23 04:38:47;;;;;;;;;;;17.80;99.90;;;;;;4984867;28;19962;-70
2022/06/23 04:41:18;;;;;;;;;;;17.90;99.90;;;;;;4984385;28;19930;-70
2022/06/23 04:43:46;;;;;;;;;;;18.00;99.90;;;;;;4984554;28;19949;-70
2022/06/23 04:46:15;;;;;;;;;;;18.10;99.90;;;;;;4984371;28;19989;-70
2022/06/23 04:48:44;;;;;;;;;;;18.20;99.90;;;;;;4987007;28;19949;-70
2022/06/23 04:51:18;;;;;;;;;;;18.30;99.90;;;;;;4991436;28;19922;-70
2022/06/23 04:53:48;;;;;;;;;;;18.40;99.90;;;;;;4989661;28;20204;-74
2022/06/23 04:56:24;;;;;;;;;;;18.60;99.90;;;;;;4991128;28;19997;-71
2022/06/23 04:58:53;;;;;;;;;;;18.70;99.90;;;;;;4983405;28;19921;-70
2022/06/23 05:01:22;;;;;;;;;;;18.80;99.90;;;;;;4984382;28;19966;-71
2022/06/23 05:03:51;;;;;;;;;;;18.90;99.90;;;;;;4985039;28;19921;-71
2022/06/23 05:06:36;;;;;;;;;;;19.00;99.90;;;;;;4984231;28;19981;-71
2022/06/23 05:09:05;;;;;;;;;;;19.00;99.90;;;;;;4984314;28;19921;-71
2022/06/23 05:11:36;;;;;;;;;;;19.10;99.90;;;;;;4986730;28;19961;-71
2022/06/23 05:14:06;;;;;;;;;;;19.20;99.90;;;;;;4984116;28;19953;-71
2022/06/23 05:16:36;;;;;;;;;;;19.20;99.90;;;;;;4984234;28;19922;-71
2022/06/23 05:19:07;;;;;;;;;;;19.30;99.90;;;;;;4983861;28;19929;-71
2022/06/23 09:19:54;;;;;;;;;;;24.10;99.90;;;;;;4995124;28;20236;-72
2022/06/23 09:22:29;;;;;;;;;;;24.20;99.90;;;;;;5017046;28;19922;-71
2022/06/23 09:24:58;;;;;;;;;;;24.30;99.90;;;;;;4960796;28;19948;-71
2022/06/23 09:28:07;;;;;;;;;;;24.30;99.90;;;;;;4966012;28;19961;-70
2022/06/23 09:30:36;;;;;;;;;;;24.30;99.90;;;;;;4879312;29;20254;-69
2022/06/23 09:33:09;;;;;;;;;;;24.50;99.90;;;;;;4867453;29;19924;-68
2022/06/23 09:35:45;;;;;;;;;;;24.60;99.90;;;;;;4946579;28;19923;-70
2022/06/23 09:45:46;;;;;;;;;;;25.20;99.90;;;;;;5175078;27;20099;-69
2022/06/23 09:48:30;;;;;;;;;;;25.10;99.90;;;;;;5142721;27;19923;-70
2022/06/23 09:51:03;;;;;;;;;;;25.10;99.90;;;;;;5139859;28;19942;-70
2022/06/23 09:53:34;;;;;;;;;;;25.20;99.90;;;;;;5108729;28;19920;-69
2022/06/23 09:56:16;;;;;;;;;;;25.20;99.90;;;;;;5072218;28;20260;-71
2022/06/23 09:59:00;;;;;;;;;;;25.20;99.90;;;;;;4950438;28;19932;-70
2022/06/23 10:01:32;;;;;;;;;;;25.10;99.90;;;;;;4770442;29;19986;-70
2022/06/23 10:11:48;;;;;;;;;;;25.20;99.90;;;;;;5182647;27;19915;-70
2022/06/23 10:14:18;;;;;;;;;;;25.20;99.90;;;;;;5072845;28;19920;-70
2022/06/23 10:17:02;;;;;;;;;;;25.20;99.90;;;;;;5126253;28;19951;-70
2022/06/23 10:19:34;;;;;;;;;;;25.20;99.90;;;;;;5110208;28;19955;-71
2022/06/23 10:22:07;;;;;;;;;;;25.50;99.90;;;;;;4908699;28;2006804;-70
2022/06/23 10:24:43;;;;;;;;;;;25.60;99.90;;;;;;4900225;29;19966;-70
2022/06/23 10:27:17;;;;;;;;;;;25.80;99.90;;;;;;4905464;29;20230;-70
2022/06/23 10:30:02;;;;;;;;;;;25.70;99.90;;;;;;4905249;29;19963;-70
2022/06/23 10:32:43;;;;;;;;;;;25.80;99.90;;;;;;4910807;29;19930;-71
2022/06/23 10:35:25;;;;;;;;;;;26.00;99.90;;;;;;4875022;29;19999;-70
2022/06/23 10:38:02;;;;;;;;;;;26.10;99.90;;;;;;4867623;29;20152;-70
2022/06/23 10:40:38;;;;;;;;;;;26.20;99.90;;;;;;4868158;29;19991;-70
2022/06/23 10:43:18;;;;;;;;;;;26.30;99.90;;;;;;4868092;29;19924;-71
2022/06/23 10:45:50;;;;;;;;;;;26.50;99.90;;;;;;4875273;29;19924;-70
2022/06/23 10:48:25;;;;;;;;;;;26.80;99.90;;;;;;4886854;29;19931;-70
2022/06/23 10:50:58;;;;;;;;;;;27.00;99.90;;;;;;4886667;29;20124;-70
2022/06/23 10:53:42;;;;;;;;;;;27.30;99.90;;;;;;4887433;29;19987;-70
2022/06/23 10:56:21;;;;;;;;;;;27.40;99.90;;;;;;4891931;29;19959;-70
2022/06/23 10:59:09;;;;;;;;;;;27.30;99.90;;;;;;4886459;29;19951;-70
2022/06/23 11:01:43;;;;;;;;;;;27.30;99.90;;;;;;4888890;29;20178;-70
2022/06/23 11:04:23;;;;;;;;;;;27.30;99.90;;;;;;4886266;29;19931;-70
2022/06/23 11:07:17;;;;;;;;;;;27.30;99.90;;;;;;4872686;29;19955;-70
2022/06/23 11:09:50;;;;;;;;;;;27.40;99.90;;;;;;4894024;29;19970;-71
2022/06/23 11:12:26;;;;;;;;;;;27.60;99.90;;;;;;4889277;29;19959;-71
2022/06/23 11:14:58;;;;;;;;;;;27.70;99.90;;;;;;4885906;29;19955;-70
2022/06/23 11:17:34;;;;;;;;;;;27.60;99.90;;;;;;4884857;29;19930;-70
2022/06/23 11:20:06;;;;;;;;;;;27.30;99.90;;;;;;4870574;29;19928;-70
2022/06/23 11:22:36;;;;;;;;;;;27.10;99.90;;;;;;4977729;28;20269;-71
2022/06/23 11:25:10;;;;;;;;;;;27.00;99.90;;;;;;5007201;28;19922;-70
2022/06/23 11:27:43;;;;;;;;;;;26.90;99.90;;;;;;5006392;28;19921;-71
2022/06/23 11:30:20;;;;;;;;;;;26.90;99.90;;;;;;5002016;28;19922;-71
2022/06/23 11:32:54;;;;;;;;;;;27.20;99.90;;;;;;5006606;28;19928;-70
2022/06/23 11:35:32;;;;;;;;;;;27.60;99.90;;;;;;5006287;28;20088;-71
2022/06/23 11:38:10;;;;;;;;;;;28.00;99.90;;;;;;5006185;28;19968;-70
2022/06/23 11:40:51;;;;;;;;;;;28.30;99.90;;;;;;5006282;28;19948;-70
2022/06/23 11:43:22;;;;;;;;;;;28.70;99.90;;;;;;5003336;28;19956;-70
2022/06/23 11:46:04;;;;;;;;;;;29.00;99.90;;;;;;4986870;28;19929;-70
2022/06/23 11:48:40;;;;;;;;;;;29.20;99.90;;;;;;4986149;28;19988;-70
2022/06/23 11:51:11;;;;;;;;;;;29.10;99.90;;;;;;5002009;28;20236;-70
2022/06/23 11:53:45;;;;;;;;;;;29.00;99.90;;;;;;5005643;28;19922;-70
2022/06/23 11:56:17;;;;;;;;;;;28.70;99.90;;;;;;5006093;28;19954;-69
2022/06/23 11:59:05;;;;;;;;;;;28.30;99.90;;;;;;5006298;28;19985;-70
2022/06/23 12:01:33;;;;;;;;;;;28.10;99.90;;;;;;4999372;28;19922;-73
2022/06/23 12:04:24;;;;;;;;;;;28.20;99.90;;;;;;5005878;28;19928;-70
2022/06/23 12:07:00;;;;;;;;;;;28.50;99.90;;;;;;5005938;28;20183;-70
2022/06/23 12:09:28;;;;;;;;;;;28.30;99.90;;;;;;5006013;28;19922;-70
2022/06/23 12:11:55;;;;;;;;;;;28.20;99.90;;;;;;5005596;28;19928;-69
2022/06/23 12:14:23;;;;;;;;;;;28.00;99.90;;;;;;4996161;28;19922;-70
2022/06/23 12:16:55;;;;;;;;;;;28.00;99.90;;;;;;4986986;28;20149;-73
2022/06/23 12:19:25;;;;;;;;;;;28.20;99.90;;;;;;4986507;28;19922;-71
2022/06/23 12:21:55;;;;;;;;;;;28.70;99.90;;;;;;5007401;28;19963;-70
2022/06/23 12:24:25;;;;;;;;;;;29.10;99.90;;;;;;5083561;28;19988;-69
2022/06/23 12:26:58;;;;;;;;;;;29.30;99.90;;;;;;5085111;28;19959;-68
2022/06/23 12:29:28;;;;;;;;;;;29.50;99.90;;;;;;5084801;28;20254;-70
2022/06/23 12:31:59;;;;;;;;;;;29.40;99.90;;;;;;5085059;28;19921;-69
2022/06/23 12:34:32;;;;;;;;;;;29.60;99.90;;;;;;5082448;28;19987;-70
2022/06/23 12:37:08;;;;;;;;;;;29.80;99.90;;;;;;5084476;28;19952;-69
2022/06/23 12:39:41;;;;;;;;;;;29.60;99.90;;;;;;5084072;28;19956;-69
2022/06/23 12:42:11;;;;;;;;;;;29.60;99.90;;;;;;5081440;28;19921;-69
2022/06/23 12:44:43;;;;;;;;;;;29.70;99.90;;;;;;5083931;28;19920;-70
2022/06/23 12:47:24;;;;;;;;;;;29.90;99.90;;;;;;5084502;28;19983;-70
2022/06/23 12:50:03;;;;;;;;;;;30.20;99.90;;;;;;5084239;28;19986;-70
2022/06/23 12:52:37;;;;;;;;;;;30.50;99.90;;;;;;5066526;28;19984;-69
2022/06/23 12:55:14;;;;;;;;;;;30.80;99.90;;;;;;5083750;28;20168;-69
2022/06/23 12:58:01;;;;;;;;;;;31.10;99.90;;;;;;5084547;28;19956;-69
2022/06/23 13:00:42;;;;;;;;;;;31.20;99.90;;;;;;5078506;28;20406;-69
2022/06/23 13:03:16;;;;;;;;;;;31.30;99.90;;;;;;5080064;28;19924;-69
2022/06/23 13:05:47;;;;;;;;;;;31.30;99.90;;;;;;5084561;28;19929;-69
2022/06/23 13:08:20;;;;;;;;;;;31.30;99.90;;;;;;5084436;28;19970;-72
2022/06/23 13:10:49;;;;;;;;;;;31.00;99.90;;;;;;5084017;28;19966;-72
2022/06/23 13:13:19;;;;;;;;;;;31.10;99.90;;;;;;5078701;28;19958;-69
2022/06/23 13:15:49;;;;;;;;;;;31.30;99.90;;;;;;5081273;28;19955;-69
2022/06/23 13:18:21;;;;;;;;;;;31.50;99.90;;;;;;5083484;28;20204;-70
2022/06/23 13:20:50;;;;;;;;;;;31.20;99.90;;;;;;5073683;28;19959;-70
2022/06/23 13:23:18;;;;;;;;;;;31.10;99.90;;;;;;5058515;28;19928;-71
2022/06/23 13:25:46;;;;;;;;;;;31.30;99.90;;;;;;5063641;28;19921;-70
2022/06/23 13:28:23;;;;;;;;;;;31.60;99.90;;;;;;5063426;28;19984;-72
2022/06/23 13:30:51;;;;;;;;;;;31.80;99.90;;;;;;5063840;28;19963;-70
2022/06/23 13:33:29;;;;;;;;;;;32.10;99.90;;;;;;5063307;28;19948;-70
2022/06/23 13:35:59;;;;;;;;;;;32.30;99.90;;;;;;5061801;28;20108;-70
2022/06/23 13:38:30;;;;;;;;;;;32.30;99.90;;;;;;5060916;28;19921;-69
2022/06/23 13:41:01;;;;;;;;;;;32.50;99.90;;;;;;5058781;28;19943;-70
2022/06/23 13:43:31;;;;;;;;;;;32.40;99.90;;;;;;5063198;28;20220;-68
2022/06/23 13:46:01;;;;;;;;;;;32.10;99.90;;;;;;5061772;28;19920;-69
2022/06/23 13:48:32;;;;;;;;;;;31.60;99.90;;;;;;5062739;28;20230;-69
2022/06/23 13:51:01;;;;;;;;;;;31.20;99.90;;;;;;5063501;28;19924;-69
2022/06/23 13:53:32;;;;;;;;;;;30.90;99.90;;;;;;5063056;28;19928;-69
2022/06/23 13:56:03;;;;;;;;;;;31.00;99.90;;;;;;5063397;28;20203;-69
2022/06/23 13:58:34;;;;;;;;;;;30.90;99.90;;;;;;5063394;28;20004;-69
2022/06/23 14:01:04;;;;;;;;;;;30.80;99.90;;;;;;5067582;23;20320;-91
2022/06/23 14:03:39;;;;;;;;;;;30.70;99.90;;;;;;5049850;28;19928;-89
2022/06/23 14:06:08;;;;;;;;;;;30.80;99.90;;;;;;5045762;28;19921;-90
2022/06/23 14:08:43;;;;;;;;;;;31.00;99.90;;;;;;5056670;28;20859;-90
2022/06/23 14:14:03;;;;;;;;;;;31.70;99.90;;;;;;5054882;23;19921;-70
2022/06/23 14:16:33;;;;;;;;;;;31.80;99.90;;;;;;5042534;28;19925;-70
2022/06/23 14:19:03;;;;;;;;;;;31.70;99.90;;;;;;5042748;28;20243;-69
2022/06/23 14:21:32;;;;;;;;;;;31.50;99.90;;;;;;5034036;28;19921;-69
2022/06/23 14:24:03;;;;;;;;;;;31.30;99.90;;;;;;5048348;28;19953;-68
2022/06/23 14:26:33;;;;;;;;;;;31.00;99.90;;;;;;5061357;28;19921;-68
2022/06/23 14:29:02;;;;;;;;;;;31.20;99.90;;;;;;5063444;28;19992;-68
2022/06/23 14:31:32;;;;;;;;;;;31.50;99.90;;;;;;5063275;28;19928;-68
2022/06/23 14:34:01;;;;;;;;;;;31.90;99.90;;;;;;5042362;28;19959;-68
2022/06/23 14:36:33;;;;;;;;;;;32.30;99.90;;;;;;5056784;28;19920;-69
2022/06/23 14:39:03;;;;;;;;;;;32.50;99.90;;;;;;5063076;28;20280;-69
2022/06/23 14:41:38;;;;;;;;;;;32.60;99.90;;;;;;5057345;28;19984;-69
2022/06/23 14:44:11;;;;;;;;;;;32.80;99.90;;;;;;5052139;28;19921;-69
2022/06/23 14:46:42;;;;;;;;;;;33.00;99.90;;;;;;5057510;28;20358;-69
2022/06/23 14:49:15;;;;;;;;;;;33.20;99.90;;;;;;5058722;28;19983;-66
2022/06/23 14:51:44;;;;;;;;;;;33.30;99.90;;;;;;5062496;28;19921;-65
2022/06/23 14:54:16;;;;;;;;;;;33.40;99.90;;;;;;5053961;28;19921;-67
2022/06/23 14:56:45;;;;;;;;;;;33.60;99.90;;;;;;5044492;28;19959;-68
2022/06/23 14:59:15;;;;;;;;;;;33.60;99.50;;;;;;5046904;28;20035;-68
2022/06/23 15:01:44;;;;;;;;;;;33.70;98.70;;;;;;5046842;28;20119;-68
2022/06/23 15:04:17;;;;;;;;;;;33.80;98.60;;;;;;5046471;28;19921;-68
2022/06/23 15:06:48;;;;;;;;;;;33.90;99.10;;;;;;5046374;28;20198;-66
2022/06/23 15:09:19;;;;;;;;;;;34.10;98.90;;;;;;5046716;28;19956;-68
2022/06/23 15:11:49;;;;;;;;;;;33.90;98.40;;;;;;5046504;28;19964;-67
2022/06/23 15:14:21;;;;;;;;;;;33.70;98.70;;;;;;5062486;28;20112;-67
2022/06/23 15:16:50;;;;;;;;;;;33.40;98.70;;;;;;5066515;28;20200;-68
2022/06/23 15:19:20;;;;;;;;;;;33.10;98.80;;;;;;5066442;28;19928;-68
2022/06/23 15:24:37;;;;;;;;;;;32.80;99.20;;;;;;5046188;28;19928;-68
2022/06/23 15:27:06;;;;;;;;;;;32.60;99.00;;;;;;5046405;28;20176;-68
2022/06/23 15:29:38;;;;;;;;;;;32.60;98.90;;;;;;5046342;28;19921;-68
2022/06/23 15:32:07;;;;;;;;;;;32.70;99.20;;;;;;5046180;28;19921;-68
2022/06/23 15:34:40;;;;;;;;;;;32.90;99.10;;;;;;5046167;28;19952;-68
2022/06/23 15:37:18;;;;;;;;;;;33.10;98.30;;;;;;5046258;28;19936;-68
2022/06/23 15:39:50;;;;;;;;;;;33.20;97.80;;;;;;5046213;28;19921;-68
2022/06/23 15:42:20;;;;;;;;;;;33.40;97.90;;;;;;5046990;28;20213;-68
2022/06/23 15:44:51;;;;;;;;;;;33.50;97.60;;;;;;5065603;28;19987;-67
2022/06/23 15:47:20;;;;;;;;;;;33.50;96.80;;;;;;5065767;28;19992;-68
2022/06/23 15:49:51;;;;;;;;;;;33.50;96.60;;;;;;5065918;28;19959;-66
2022/06/23 15:52:24;;;;;;;;;;;33.50;96.80;;;;;;5065325;28;19921;-67
2022/06/23 15:54:57;;;;;;;;;;;33.60;96.90;;;;;;5065687;28;20242;-66
2022/06/23 15:57:26;;;;;;;;;;;33.70;96.20;;;;;;5065034;28;19920;-66
2022/06/23 15:59:54;;;;;;;;;;;33.70;96.40;;;;;;5065192;28;19927;-69
2022/06/23 16:02:29;;;;;;;;;;;33.50;96.60;;;;;;5064658;28;19959;-69
2022/06/23 16:04:58;;;;;;;;;;;33.40;95.90;;;;;;5062720;28;19960;-68
2022/06/23 16:07:28;;;;;;;;;;;33.30;95.80;;;;;;5052914;28;19952;-68
2022/06/23 16:09:57;;;;;;;;;;;33.20;96.20;;;;;;5056806;28;19956;-68
2022/06/23 16:12:32;;;;;;;;;;;33.30;96.30;;;;;;5051403;28;19929;-68
2022/06/23 16:15:02;;;;;;;;;;;33.40;96.30;;;;;;5058253;28;19920;-69
2022/06/23 16:17:31;;;;;;;;;;;33.40;96.00;;;;;;5047767;28;20212;-68
2022/06/23 16:20:00;;;;;;;;;;;33.50;95.60;;;;;;5054584;28;19959;-68
2022/06/23 16:22:41;;;;;;;;;;;33.60;96.40;;;;;;5058101;28;19921;-68
2022/06/23 16:25:12;;;;;;;;;;;33.40;95.70;;;;;;5052045;28;20137;-68
2022/06/23 16:27:41;;;;;;;;;;;33.00;95.90;;;;;;5051717;28;19960;-68
2022/06/23 16:30:17;;;;;;;;;;;32.60;96.30;;;;;;5058705;28;20239;-68
2022/06/23 16:32:45;;;;;;;;;;;32.50;96.90;;;;;;5057854;28;19928;-68
2022/06/23 16:35:16;;;;;;;;;;;32.50;97.20;;;;;;5056752;28;19959;-69
2022/06/23 16:37:47;;;;;;;;;;;32.50;96.70;;;;;;5045790;28;19921;-68
2022/06/23 16:40:19;;;;;;;;;;;32.40;97.00;;;;;;5044464;28;20284;-68
2022/06/23 16:42:53;;;;;;;;;;;32.10;96.70;;;;;;5053535;28;19953;-67
2022/06/23 16:45:26;;;;;;;;;;;31.80;96.70;;;;;;5058982;28;20163;-68
2022/06/23 16:47:57;;;;;;;;;;;31.50;97.20;;;;;;5064124;28;19956;-68
2022/06/23 16:50:27;;;;;;;;;;;31.50;98.00;;;;;;5064075;28;20239;-68
2022/06/23 16:53:00;;;;;;;;;;;31.60;97.40;;;;;;5058039;28;19984;-68
2022/06/23 16:55:32;;;;;;;;;;;31.50;97.00;;;;;;5044303;28;19921;-68
2022/06/23 16:58:02;;;;;;;;;;;31.60;97.90;;;;;;5058453;28;19956;-68
2022/06/23 17:00:40;;;;;;;;;;;31.60;97.20;;;;;;5063583;28;19928;-68
2022/06/23 17:03:12;;;;;;;;;;;31.60;97.70;;;;;;5055118;28;19992;-68
2022/06/23 17:05:40;;;;;;;;;;;31.70;98.10;;;;;;5056060;28;19928;-68
2022/06/23 17:08:10;;;;;;;;;;;31.90;97.70;;;;;;5046743;28;20169;-68
2022/06/23 17:10:40;;;;;;;;;;;32.00;97.20;;;;;;5060268;28;19959;-68
2022/06/23 17:13:11;;;;;;;;;;;32.00;97.10;;;;;;5049425;28;19967;-68
2022/06/23 17:15:43;;;;;;;;;;;32.00;97.30;;;;;;5059946;28;19957;-68
2022/06/23 17:18:12;;;;;;;;;;;32.00;97.20;;;;;;5059035;28;20224;-69
2022/06/23 17:20:40;;;;;;;;;;;32.00;97.30;;;;;;5048999;28;19991;-68
2022/06/23 17:23:15;;;;;;;;;;;32.00;97.10;;;;;;5049672;28;19980;-70
2022/06/23 17:25:45;;;;;;;;;;;32.00;97.50;;;;;;5064199;28;20116;-69
2022/06/23 17:28:16;;;;;;;;;;;31.80;97.20;;;;;;5063947;28;19963;-70
2022/06/23 17:30:44;;;;;;;;;;;31.80;97.70;;;;;;5047151;28;20188;-70
2022/06/23 17:33:16;;;;;;;;;;;31.70;97.90;;;;;;5057778;28;19924;-70
2022/06/23 17:35:44;;;;;;;;;;;31.70;97.70;;;;;;5056845;28;20047;-70
2022/06/23 17:43:52;;;;;;;;;;;31.60;98.00;;;;;;5048488;28;19923;-70
2022/06/23 17:46:21;;;;;;;;;;;31.50;98.00;;;;;;5054017;28;19959;-69
2022/06/23 17:48:51;;;;;;;;;;;31.50;98.00;;;;;;5057978;28;19959;-69
2022/06/23 17:51:21;;;;;;;;;;;31.50;97.90;;;;;;5058380;28;19924;-69
2022/06/23 17:54:01;;;;;;;;;;;31.50;97.90;;;;;;5058296;28;19921;-69
2022/06/23 17:56:33;;;;;;;;;;;31.50;97.70;;;;;;5056141;28;19921;-71
2022/06/23 17:59:00;;;;;;;;;;;31.40;97.80;;;;;;5063688;28;19952;-69
2022/06/23 18:01:27;;;;;;;;;;;31.40;97.80;;;;;;5044222;28;20160;-69
2022/06/23 18:03:54;;;;;;;;;;;31.40;97.60;;;;;;5045157;28;20208;-69
2022/06/23 18:06:22;;;;;;;;;;;31.40;98.00;;;;;;5051076;28;19988;-69
2022/06/23 18:08:51;;;;;;;;;;;31.30;97.50;;;;;;5054221;28;19956;-70
2022/06/23 18:11:22;;;;;;;;;;;31.30;97.70;;;;;;5057035;28;19959;-70
2022/06/23 18:13:50;;;;;;;;;;;31.20;97.80;;;;;;5045701;28;19977;-70
2022/06/23 18:16:23;;;;;;;;;;;31.20;97.80;;;;;;5054669;28;19925;-69
2022/06/23 18:18:53;;;;;;;;;;;31.00;98.00;;;;;;5062036;28;19967;-69
2022/06/23 18:21:24;;;;;;;;;;;30.90;98.50;;;;;;5062888;28;19922;-69
2022/06/23 18:23:57;;;;;;;;;;;30.80;98.30;;;;;;5062533;28;19956;-69
2022/06/23 18:26:28;;;;;;;;;;;30.80;98.30;;;;;;5063215;28;19927;-69
2022/06/23 18:28:59;;;;;;;;;;;30.70;98.70;;;;;;5063007;28;19981;-69
2022/06/23 18:31:29;;;;;;;;;;;30.60;98.20;;;;;;5064102;28;19933;-69
2022/06/23 18:34:10;;;;;;;;;;;30.50;98.60;;;;;;5066793;28;19958;-69
2022/06/23 18:36:44;;;;;;;;;;;30.40;98.60;;;;;;5066592;28;19956;-68
2022/06/23 18:39:14;;;;;;;;;;;30.20;98.70;;;;;;5065692;28;19943;-69
2022/06/23 18:41:44;;;;;;;;;;;30.00;98.80;;;;;;5054702;28;19921;-70
2022/06/23 18:44:15;;;;;;;;;;;29.90;99.20;;;;;;5046537;28;19984;-69
2022/06/23 18:46:45;;;;;;;;;;;29.70;99.10;;;;;;5064596;28;19921;-69
2022/06/23 18:49:14;;;;;;;;;;;29.50;99.40;;;;;;5066809;28;19928;-68
2022/06/23 18:51:40;;;;;;;;;;;29.40;99.80;;;;;;5066774;28;19967;-69
2022/06/23 18:54:14;;;;;;;;;;;29.30;99.80;;;;;;5065373;28;19984;-68
2022/06/23 18:56:44;;;;;;;;;;;29.20;99.90;;;;;;5066680;28;20093;-69
2022/06/23 18:59:26;;;;;;;;;;;29.00;99.90;;;;;;5054772;28;19981;-69
2022/06/23 19:01:54;;;;;;;;;;;28.90;99.90;;;;;;5063374;28;19987;-69
2022/06/23 19:04:24;;;;;;;;;;;28.80;99.90;;;;;;5065727;28;19928;-69
2022/06/23 19:06:53;;;;;;;;;;;28.80;99.90;;;;;;5066667;28;19987;-69
2022/06/23 19:09:22;;;;;;;;;;;28.70;99.90;;;;;;5066670;28;19983;-69
2022/06/23 19:11:53;;;;;;;;;;;28.70;99.90;;;;;;5060804;28;19952;-69
2022/06/23 19:14:24;;;;;;;;;;;28.60;99.90;;;;;;5066190;28;20121;-69
2022/06/23 19:16:53;;;;;;;;;;;28.60;99.90;;;;;;5066133;28;19928;-68
2022/06/23 19:19:22;;;;;;;;;;;28.50;99.90;;;;;;5066474;28;19983;-68
2022/06/23 19:21:55;;;;;;;;;;;28.40;99.90;;;;;;5066091;28;20212;-68
2022/06/23 19:24:36;;;;;;;;;;;28.40;99.90;;;;;;5064868;28;19983;-69
2022/06/23 19:27:07;;;;;;;;;;;28.30;99.90;;;;;;5059659;28;20009;-69
2022/06/23 19:29:48;;;;;;;;;;;28.20;99.90;;;;;;5064941;28;19924;-69
2022/06/23 19:32:19;;;;;;;;;;;28.20;99.90;;;;;;5058791;28;19971;-69
2022/06/23 19:34:49;;;;;;;;;;;28.20;99.90;;;;;;5065815;28;19963;-69
2022/06/23 19:37:20;;;;;;;;;;;28.10;99.90;;;;;;5065639;28;19920;-69
2022/06/23 19:39:52;;;;;;;;;;;28.00;99.90;;;;;;5054202;28;19978;-69
2022/06/23 19:42:21;;;;;;;;;;;28.00;99.90;;;;;;5045272;28;19921;-69